Time;durP1;ratioP1;P1;durP2;ratioP2;P2;SDS_P1;SDS_P2;PMS_P1;PMS_P2;Temp;Humidity;BMP_temperature;BMP_pressure;BME280_temperature;BME280_humidity;BME280_pressure;Samples;Min_cycle;Max_cycle;Signal;HPM_P1;HPM_P2
2022/05/18 00:00:51;;;;;;;;;5.25;4.75;;;;;27.03;43.13;101222.94;2062003;28;47686;-64
2022/05/18 00:01:52;;;;;;;;;5.40;5.40;;;;;27.02;43.10;101223.94;2061954;28;47487;-64
2022/05/18 00:02:52;;;;;;;;;5.75;5.75;;;;;27.01;43.25;101217.63;2060397;28;47641;-63
2022/05/18 00:03:53;;;;;;;;;7.75;6.00;;;;;27.00;43.97;101226.78;2062870;28;47641;-64
2022/05/18 00:04:53;;;;;;;;;5.00;5.00;;;;;26.98;43.08;101224.19;2070901;28;47939;-64
2022/05/18 00:05:58;;;;;;;;;5.40;5.40;;;;;26.98;43.67;101224.19;2071254;28;46570;-64
2022/05/18 00:06:58;;;;;;;;;4.60;4.60;;;;;26.99;43.90;101222.31;2071006;28;47970;-64
2022/05/18 00:07:59;;;;;;;;;4.00;4.00;;;;;26.97;43.33;101227.03;2068829;28;47627;-64
2022/05/18 00:08:59;;;;;;;;;4.00;4.00;;;;;26.96;43.58;101220.72;2068991;28;47906;-63
2022/05/18 00:10:00;;;;;;;;;5.00;5.00;;;;;26.96;43.76;101219.84;2069319;28;47321;-63
2022/05/18 00:11:13;;;;;;;;;5.00;5.00;;;;;26.96;43.42;101222.56;2070951;28;48118;-63
2022/05/18 00:12:14;;;;;;;;;4.80;3.20;;;;;26.95;43.45;101226.28;2065638;28;47664;-63
2022/05/18 00:13:14;;;;;;;;;5.00;5.00;;;;;26.95;43.43;101231.75;2071011;28;47340;-63
2022/05/18 00:14:15;;;;;;;;;5.50;5.50;;;;;26.94;44.02;101230.88;2069551;28;47597;-63
2022/05/18 00:15:18;;;;;;;;;7.60;6.20;;;;;26.93;43.85;101229.16;2071160;28;48161;-63
2022/05/18 00:16:21;;;;;;;;;3.40;3.40;;;;;26.92;44.04;101235.56;2071085;28;47605;-63
2022/05/18 00:17:22;;;;;;;;;5.60;5.60;;;;;26.91;43.92;101231.09;2071157;28;47947;-63
2022/05/18 00:18:22;;;;;;;;;4.50;4.50;;;;;26.90;43.72;101237.53;2070944;28;47619;-64
2022/05/18 00:19:23;;;;;;;;;4.75;4.75;;;;;26.90;43.96;101232.09;2071110;28;47296;-65
2022/05/18 00:20:24;;;;;;;;;5.00;4.75;;;;;26.89;44.03;101227.66;2070654;28;47647;-63
2022/05/18 00:21:25;;;;;;;;;4.00;4.00;;;;;26.89;44.07;101230.38;2068805;28;47587;-63
2022/05/18 00:22:25;;;;;;;;;7.00;6.80;;;;;26.89;44.17;101238.53;2070736;28;47456;-64
2022/05/18 00:23:27;;;;;;;;;6.00;6.00;;;;;26.90;43.64;101234.81;2071227;28;47243;-64
2022/05/18 00:24:27;;;;;;;;;5.20;5.00;;;;;26.90;43.85;101239.41;2071127;28;48137;-64
2022/05/18 00:25:30;;;;;;;;;4.00;4.00;;;;;26.88;43.90;101230.50;2070873;28;47210;-64
2022/05/18 00:26:31;;;;;;;;;6.00;4.20;;;;;26.86;43.77;101233.34;2061657;28;48057;-64
2022/05/18 00:27:31;;;;;;;;;6.00;6.00;;;;;26.85;44.11;101230.75;2058761;28;47450;-64
2022/05/18 00:28:33;;;;;;;;;6.75;6.25;;;;;26.83;44.70;101236.34;2071028;28;46922;-64
2022/05/18 00:29:34;;;;;;;;;5.20;5.20;;;;;26.81;44.65;101240.19;2071194;28;47624;-64
2022/05/18 00:30:38;;;;;;;;;7.20;5.40;;;;;26.79;44.32;101243.00;2070312;28;48120;-65
2022/05/18 00:31:41;;;;;;;;;6.00;6.00;;;;;26.79;44.82;101242.13;2070533;28;47523;-64
2022/05/18 00:32:42;;;;;;;;;5.60;5.60;;;;;26.76;44.78;101245.13;2071303;28;48013;-64
2022/05/18 00:33:42;;;;;;;;;4.20;4.20;;;;;26.75;44.69;101236.09;2078789;28;46267;-64
2022/05/18 00:34:43;;;;;;;;;6.00;6.00;;;;;26.73;45.45;101239.94;2083341;28;47745;-64
2022/05/18 00:35:43;;;;;;;;;4.25;4.00;;;;;26.72;45.51;101251.81;2086116;28;47185;-64
2022/05/18 00:36:44;;;;;;;;;5.75;5.75;;;;;26.71;45.38;101250.94;2087716;28;47963;-64
2022/05/18 00:37:44;;;;;;;;;3.00;3.00;;;;;26.69;45.00;101248.34;2089186;28;47565;-65
2022/05/18 00:38:45;;;;;;;;;6.75;6.75;;;;;26.68;44.94;101245.75;2089261;28;47182;-64
2022/05/18 00:39:46;;;;;;;;;5.75;5.75;;;;;26.66;45.35;101247.72;2089079;28;47228;-65
2022/05/18 00:40:48;;;;;;;;;6.25;6.25;;;;;26.67;45.43;101257.63;2071121;28;48015;-64
2022/05/18 00:41:48;;;;;;;;;6.00;6.00;;;;;26.65;45.42;101260.47;2072105;28;48135;-65
2022/05/18 00:42:49;;;;;;;;;5.75;5.75;;;;;26.64;45.70;101256.00;2089459;28;47579;-64
2022/05/18 00:43:51;;;;;;;;;6.00;6.00;;;;;26.62;45.64;101252.53;2089341;28;47526;-64
2022/05/18 00:44:52;;;;;;;;;7.80;7.20;;;;;26.60;46.09;101259.97;2079945;28;47332;-65
2022/05/18 00:45:52;;;;;;;;;7.00;7.00;;;;;26.59;46.27;101262.81;2068282;28;47791;-64
2022/05/18 00:46:53;;;;;;;;;7.00;6.00;;;;;26.57;46.03;101272.97;2074280;28;47654;-64
2022/05/18 00:47:53;;;;;;;;;6.25;6.25;;;;;26.55;45.55;101270.38;2089126;28;47577;-64
2022/05/18 00:48:54;;;;;;;;;6.25;6.25;;;;;26.55;46.03;101277.66;2089077;28;47451;-64
2022/05/18 00:50:23;;;;;;;;;5.75;5.75;;;;;26.52;46.07;101269.75;2089174;28;47980;-64
2022/05/18 00:51:37;;;;;;;;;8.00;7.00;;;;;26.49;45.99;101272.72;2080619;28;47878;-64
2022/05/18 00:52:43;;;;;;;;;6.00;6.00;;;;;26.48;46.74;101270.97;2085302;28;47971;-63
2022/05/18 00:54:10;;;;;;;;;6.40;5.40;;;;;26.47;46.28;101274.69;2088980;28;48018;-65
2022/05/18 00:55:14;;;;;;;;;6.60;6.60;;;;;26.43;46.82;101268.63;2061359;28;48160;-64
2022/05/18 00:56:21;;;;;;;;;6.20;6.20;;;;;26.42;46.48;101275.03;2065648;28;47645;-64
2022/05/18 00:57:29;;;;;;;;;9.20;6.80;;;;;26.39;46.40;101273.44;2066699;28;48042;-65
2022/05/18 00:58:43;;;;;;;;;7.60;7.00;;;;;26.39;46.70;101280.72;2063345;28;48176;-64
2022/05/18 00:59:48;;;;;;;;;6.00;6.00;;;;;26.36;46.54;101268.25;2063587;28;46913;-63
2022/05/18 01:00:51;;;;;;;;;6.40;6.40;;;;;26.36;46.96;101275.53;2063277;28;48299;-63
2022/05/18 01:01:52;;;;;;;;;6.00;5.20;;;;;26.32;47.02;101274.03;2063370;28;47890;-63
2022/05/18 01:02:59;;;;;;;;;4.00;4.00;;;;;26.31;46.69;101275.00;2063750;28;47321;-63
2022/05/18 01:04:02;;;;;;;;;4.80;4.20;;;;;26.31;47.14;101277.75;2063195;28;47962;-64
2022/05/18 01:05:07;;;;;;;;;6.20;6.20;;;;;26.29;46.76;101282.41;2069148;28;48129;-63
2022/05/18 01:06:21;;;;;;;;;4.80;4.80;;;;;26.29;47.13;101287.84;2063767;28;47925;-63
2022/05/18 01:07:29;;;;;;;;;5.60;5.00;;;;;26.27;47.23;101284.38;2068719;28;47478;-64
2022/05/18 01:08:38;;;;;;;;;5.00;4.80;;;;;26.27;47.38;101281.66;2063331;28;47848;-63
2022/05/18 01:09:44;;;;;;;;;6.00;5.40;;;;;26.26;47.31;101282.66;2063490;28;47966;-63
2022/05/18 01:10:44;;;;;;;;;4.80;4.80;;;;;26.25;47.37;101287.22;2061650;28;48214;-64
2022/05/18 01:11:45;;;;;;;;;5.00;5.00;;;;;26.25;47.39;101289.94;2065218;28;47866;-64
2022/05/18 01:12:47;;;;;;;;;5.50;5.50;;;;;26.23;47.51;101280.19;2063384;28;47370;-64
2022/05/18 01:13:49;;;;;;;;;7.40;7.40;;;;;26.22;47.08;101286.63;2068299;28;47698;-64
2022/05/18 01:15:02;;;;;;;;;7.40;6.20;;;;;26.19;47.45;101287.72;2063912;28;47766;-64
2022/05/18 01:16:02;;;;;;;;;5.80;4.20;;;;;26.19;47.36;101289.59;2055241;28;47168;-63
2022/05/18 01:17:04;;;;;;;;;5.50;5.50;;;;;26.18;47.45;101287.84;2055233;28;47516;-63
2022/05/18 01:18:05;;;;;;;;;6.20;5.40;;;;;26.17;47.33;101294.25;2063065;28;48150;-63
2022/05/18 01:19:23;;;;;;;;;5.50;5.50;;;;;26.17;47.64;101291.53;2063272;28;47971;-63
2022/05/18 01:20:28;;;;;;;;;7.40;6.60;;;;;26.18;47.37;101298.72;2062887;28;47386;-64
2022/05/18 01:21:43;;;;;;;;;5.00;5.00;;;;;26.16;47.51;101295.25;2067635;28;47399;-62
2022/05/18 01:23:13;;;;;;;;;4.80;4.80;;;;;26.15;47.30;101293.50;2063232;28;47927;-64
2022/05/18 01:24:17;;;;;;;;;6.20;6.00;;;;;26.14;47.75;101298.09;2060469;28;48136;-63
2022/05/18 01:25:56;;;;;;;;;6.40;6.40;;;;;26.12;47.75;101297.34;2062914;28;47956;-63
2022/05/18 01:27:00;;;;;;;;;6.40;6.00;;;;;26.10;47.14;101300.19;2039840;28;48050;-63
2022/05/18 01:28:04;;;;;;;;;6.60;6.60;;;;;26.09;47.18;101295.72;2041088;28;47810;-63
2022/05/18 01:29:05;;;;;;;;;6.20;6.20;;;;;26.09;47.47;101294.88;2039101;28;48205;-62
2022/05/18 01:30:07;;;;;;;;;5.25;4.75;;;;;26.07;47.86;101289.56;2039430;28;47369;-63
2022/05/18 01:31:08;;;;;;;;;4.00;4.00;;;;;26.06;47.52;101293.25;2039070;28;47939;-63
2022/05/18 01:32:14;;;;;;;;;5.80;5.80;;;;;26.08;47.68;101290.41;2039189;28;47607;-64
2022/05/18 01:33:17;;;;;;;;;5.00;5.00;;;;;26.07;47.58;101289.56;2039248;28;47723;-62
2022/05/18 01:34:21;;;;;;;;;7.00;5.20;;;;;26.08;48.05;101298.56;2046063;28;45997;-63
2022/05/18 01:35:26;;;;;;;;;4.00;4.00;;;;;26.09;48.08;101303.03;2046996;28;47477;-65
2022/05/18 01:36:26;;;;;;;;;5.00;5.00;;;;;26.09;47.56;101308.47;2047277;28;47982;-64
2022/05/18 01:37:26;;;;;;;;;7.00;6.50;;;;;26.08;48.25;101299.44;2046541;28;47522;-63
2022/05/18 01:38:27;;;;;;;;;4.75;4.75;;;;;26.07;47.56;101300.44;2047105;28;47958;-63
2022/05/18 01:39:56;;;;;;;;;7.75;6.00;;;;;26.05;47.94;101302.41;2047242;28;47892;-63
2022/05/18 01:41:28;;;;;;;;;4.00;4.00;;;;;26.03;47.85;101298.03;2038682;28;48680;-63
2022/05/18 01:42:42;;;;;;;;;5.80;5.80;;;;;26.01;48.36;101300.03;2015848;29;47291;-63
2022/05/18 01:43:48;;;;;;;;;6.00;6.00;;;;;25.99;47.88;101300.16;2014914;29;47646;-64
2022/05/18 01:44:49;;;;;;;;;6.00;5.00;;;;;25.98;48.29;101303.00;2016456;29;48122;-66
2022/05/18 01:45:58;;;;;;;;;6.00;6.00;;;;;25.96;48.54;101296.81;2015543;29;48102;-63
2022/05/18 01:46:59;;;;;;;;;6.20;6.20;;;;;25.95;48.09;101305.94;2016301;29;48121;-64
2022/05/18 01:48:11;;;;;;;;;5.50;5.50;;;;;25.92;48.48;101300.72;2019811;29;47856;-64
2022/05/18 01:49:11;;;;;;;;;5.00;5.00;;;;;25.89;48.84;101296.38;2007360;29;47838;-64
2022/05/18 01:50:19;;;;;;;;;6.75;6.75;;;;;25.88;48.53;101302.81;2014002;29;46362;-64
2022/05/18 01:51:37;;;;;;;;;5.40;5.40;;;;;25.86;49.15;101310.22;2015731;29;48027;-64
2022/05/18 01:52:38;;;;;;;;;5.20;5.20;;;;;25.86;48.46;101304.78;2023088;29;47841;-64
2022/05/18 01:53:39;;;;;;;;;6.20;6.20;;;;;25.86;48.69;101304.78;1998277;29;47230;-64
2022/05/18 01:54:43;;;;;;;;;4.25;4.25;;;;;25.86;48.86;101307.50;1998406;29;45655;-64
2022/05/18 01:55:45;;;;;;;;;5.00;5.00;;;;;25.87;48.81;101308.38;2020146;29;48267;-63
2022/05/18 01:56:45;;;;;;;;;6.80;6.00;;;;;25.85;49.16;101303.06;1999285;29;47941;-64
2022/05/18 01:57:46;;;;;;;;;10.00;8.50;;;;;25.84;49.11;101304.03;1999889;29;47650;-64
2022/05/18 01:58:46;;;;;;;;;5.75;5.75;;;;;25.85;49.41;101304.91;2015781;29;47942;-64
2022/05/18 01:59:47;;;;;;;;;6.25;6.25;;;;;25.85;49.07;101307.63;2015410;29;48112;-64
2022/05/18 02:00:48;;;;;;;;;5.00;5.00;;;;;25.84;49.33;101314.94;1999792;29;47867;-64
2022/05/18 02:01:48;;;;;;;;;5.20;5.00;;;;;25.85;49.28;101311.22;1999903;29;47812;-64
2022/05/18 02:02:49;;;;;;;;;5.25;5.25;;;;;25.85;49.69;101313.06;2015674;29;48154;-64
2022/05/18 02:03:50;;;;;;;;;4.25;4.25;;;;;25.85;48.97;101315.78;2015560;29;47975;-64
2022/05/18 02:04:50;;;;;;;;;4.75;4.75;;;;;25.84;49.37;101309.47;2020800;29;47343;-64
2022/05/18 02:05:52;;;;;;;;;5.50;5.00;;;;;25.84;48.90;101314.94;2026513;29;45900;-64
2022/05/18 02:06:52;;;;;;;;;7.00;6.00;;;;;25.84;49.43;101316.78;2030985;29;47666;-64
2022/05/18 02:07:53;;;;;;;;;6.25;6.25;;;;;25.83;48.92;101313.19;2030325;29;47330;-64
2022/05/18 02:08:53;;;;;;;;;6.75;6.75;;;;;25.81;49.39;101315.16;2030850;29;47311;-64
2022/05/18 02:09:54;;;;;;;;;6.50;6.50;;;;;25.78;49.43;101310.81;2031046;29;47736;-64
2022/05/18 02:10:54;;;;;;;;;7.25;6.75;;;;;25.75;49.80;101311.03;2030669;29;47882;-63
2022/05/18 02:11:55;;;;;;;;;6.00;6.00;;;;;25.74;49.85;101313.88;2030833;29;47631;-64
2022/05/18 02:12:56;;;;;;;;;4.40;4.40;;;;;25.73;49.43;101313.00;2030641;29;47678;-64
2022/05/18 02:13:57;;;;;;;;;5.00;5.00;;;;;25.74;49.79;101319.31;2026797;29;47469;-63
2022/05/18 02:14:57;;;;;;;;;6.50;6.50;;;;;25.73;49.40;101320.31;2023204;29;47940;-62
2022/05/18 02:15:57;;;;;;;;;7.00;7.00;;;;;25.73;49.81;101332.03;2020138;29;46180;-63
2022/05/18 02:16:58;;;;;;;;;8.00;7.00;;;;;25.72;49.38;101324.88;2028702;29;47893;-63
2022/05/18 02:17:58;;;;;;;;;7.25;7.25;;;;;25.71;49.45;101331.31;2029544;29;47898;-64
2022/05/18 02:18:59;;;;;;;;;7.25;7.25;;;;;25.70;50.11;101328.69;2051873;28;47412;-64
2022/05/18 02:20:00;;;;;;;;;7.75;7.75;;;;;25.67;50.04;101335.22;2070951;28;47667;-63
2022/05/18 02:21:05;;;;;;;;;6.60;6.60;;;;;25.66;50.19;101333.44;2070173;28;47624;-63
2022/05/18 02:22:06;;;;;;;;;6.60;6.60;;;;;25.65;49.92;101334.44;2071957;28;47660;-64
2022/05/18 02:23:07;;;;;;;;;7.75;7.75;;;;;25.62;50.49;101334.66;2072047;28;47809;-64
2022/05/18 02:24:08;;;;;;;;;6.00;5.20;;;;;25.60;49.93;101333.91;2072263;28;47937;-63
2022/05/18 02:25:08;;;;;;;;;7.25;7.25;;;;;25.60;50.43;101347.50;2072201;28;47925;-63
2022/05/18 02:26:15;;;;;;;;;11.00;11.00;;;;;25.58;50.37;101343.19;2072139;28;47351;-63
2022/05/18 02:27:16;;;;;;;;;8.00;8.00;;;;;25.56;50.18;101346.00;2071673;28;47947;-63
2022/05/18 02:28:16;;;;;;;;;9.50;8.00;;;;;25.54;50.32;101342.53;2072268;28;48365;-63
2022/05/18 02:29:17;;;;;;;;;4.33;4.33;;;;;25.52;50.37;101348.06;2073011;28;47518;-63
2022/05/18 02:30:17;;;;;;;;;10.00;8.50;;;;;25.50;50.48;101347.31;2054520;28;48046;-63
2022/05/18 02:31:18;;;;;;;;;5.25;5.00;;;;;25.47;50.18;101350.28;2046498;28;47579;-63
2022/05/18 02:32:18;;;;;;;;;6.50;6.50;;;;;25.45;50.12;101357.69;2071350;28;47917;-65
2022/05/18 02:33:19;;;;;;;;;4.67;4.67;;;;;25.43;50.11;101351.50;2073044;28;48096;-63
2022/05/18 02:34:20;;;;;;;;;7.50;6.75;;;;;25.42;50.57;101354.31;2088501;28;47892;-63
2022/05/18 02:35:21;;;;;;;;;7.00;6.50;;;;;25.41;50.77;101352.56;2087962;28;48080;-64
2022/05/18 02:36:21;;;;;;;;;4.67;4.00;;;;;25.38;50.22;101350.94;2083541;28;47994;-65
2022/05/18 02:37:21;;;;;;;;;6.00;6.00;;;;;25.36;50.55;101354.75;2082461;28;47199;-63
2022/05/18 02:38:22;;;;;;;;;7.00;6.00;;;;;25.35;50.42;101358.47;2088415;28;47481;-63
2022/05/18 02:39:22;;;;;;;;;8.25;6.25;;;;;25.34;50.17;101354.88;2088173;28;47120;-63
2022/05/18 02:40:23;;;;;;;;;6.25;6.25;;;;;25.33;50.60;101355.84;2088060;28;47908;-63
2022/05/18 02:41:23;;;;;;;;;4.25;4.25;;;;;25.30;50.45;101364.25;2088469;28;48517;-63
2022/05/18 02:42:24;;;;;;;;;6.25;5.50;;;;;25.28;50.66;101363.47;2088096;28;48238;-63
2022/05/18 02:43:25;;;;;;;;;5.00;5.00;;;;;25.28;50.67;101374.31;2088325;28;47561;-63
2022/05/18 02:44:26;;;;;;;;;9.75;5.75;;;;;25.26;50.85;101373.56;2088051;28;48075;-64
2022/05/18 02:45:26;;;;;;;;;6.00;6.00;;;;;25.24;50.68;101373.69;2088410;28;47801;-64
2022/05/18 02:46:27;;;;;;;;;3.00;3.00;;;;;25.22;50.84;101366.63;2088377;28;47457;-63
2022/05/18 02:47:28;;;;;;;;;3.00;3.00;;;;;25.19;50.64;101375.03;2089288;28;47597;-62
2022/05/18 02:48:28;;;;;;;;;5.25;5.25;;;;;25.16;50.37;101372.53;2088302;28;47490;-62
2022/05/18 02:49:29;;;;;;;;;6.00;4.33;;;;;25.13;50.66;101378.16;2062767;28;46052;-63
2022/05/18 02:50:30;;;;;;;;;4.20;4.20;;;;;25.10;51.24;101373.81;2054242;28;47473;-64
2022/05/18 02:51:30;;;;;;;;;3.00;3.00;;;;;25.10;50.62;101378.38;2063983;28;47508;-63
2022/05/18 02:52:31;;;;;;;;;5.00;5.00;;;;;25.07;50.43;101376.78;2062688;28;47424;-63
2022/05/18 02:53:32;;;;;;;;;6.00;6.00;;;;;25.06;50.68;101377.75;2080900;28;47877;-63
2022/05/18 02:56:07;;;;;;;;;5.25;4.25;;;;;25.04;50.47;101373.41;2088283;28;47614;-63
2022/05/18 02:57:09;;;;;;;;;6.00;6.00;;;;;25.04;50.94;101378.84;2087313;28;47410;-63
2022/05/18 02:58:09;;;;;;;;;3.75;3.75;;;;;25.03;50.49;101380.69;2063728;28;47535;-64
2022/05/18 02:59:09;;;;;;;;;4.00;4.00;;;;;25.05;50.73;101377.88;2062959;28;47396;-63
2022/05/18 03:00:10;;;;;;;;;4.00;4.00;;;;;25.04;50.83;101376.13;2087834;28;47327;-64
2022/05/18 03:01:14;;;;;;;;;4.50;4.50;;;;;25.03;50.32;101379.81;2070471;28;47903;-64
2022/05/18 03:02:15;;;;;;;;;6.40;5.00;;;;;25.01;50.51;101382.63;2071468;28;48210;-64
2022/05/18 03:03:15;;;;;;;;;4.67;4.67;;;;;25.01;50.86;101384.47;2071509;28;47326;-65
2022/05/18 03:04:15;;;;;;;;;5.67;5.00;;;;;25.01;50.96;101381.75;2071715;28;47386;-64
2022/05/18 03:05:16;;;;;;;;;2.33;2.33;;;;;25.00;50.61;101383.56;2079762;28;48110;-63
2022/05/18 03:06:18;;;;;;;;;3.25;3.25;;;;;24.98;50.56;101393.69;2079407;28;48279;-63
2022/05/18 03:07:19;;;;;;;;;4.00;4.00;;;;;24.94;50.37;101390.31;2079241;28;48195;-63
2022/05/18 03:08:19;;;;;;;;;5.00;4.00;;;;;24.92;50.07;101394.13;2079822;28;47634;-63
2022/05/18 03:09:19;;;;;;;;;5.00;5.00;;;;;24.89;50.82;101384.34;2087105;28;47591;-63
2022/05/18 03:10:20;;;;;;;;;4.00;4.00;;;;;24.88;50.80;101379.88;2088252;28;47944;-63
2022/05/18 03:11:21;;;;;;;;;5.25;4.00;;;;;24.87;50.59;101375.44;2088289;28;48342;-64
2022/05/18 03:12:21;;;;;;;;;3.25;3.25;;;;;24.87;50.80;101378.16;2088184;28;47069;-63
2022/05/18 03:13:22;;;;;;;;;6.00;4.00;;;;;24.87;50.74;101375.44;2088043;28;47427;-63
2022/05/18 03:14:23;;;;;;;;;3.00;3.00;;;;;24.87;50.81;101377.28;2088024;28;48115;-63
2022/05/18 03:15:24;;;;;;;;;2.20;2.20;;;;;24.87;50.55;101374.56;2088483;28;47567;-63
2022/05/18 03:16:27;;;;;;;;;2.50;2.50;;;;;24.87;50.72;101380.88;2088204;28;48052;-63
2022/05/18 03:17:28;;;;;;;;;5.00;3.00;;;;;24.87;50.39;101383.59;2088048;28;48317;-64
2022/05/18 03:18:28;;;;;;;;;4.67;4.67;;;;;24.87;50.83;101388.16;2078604;28;47674;-63
2022/05/18 03:19:29;;;;;;;;;8.25;6.25;;;;;24.87;50.48;101380.88;2078684;28;47904;-63
2022/05/18 03:24:26;;;;;;;;;3.00;3.00;;;;;24.78;50.50;101383.38;2071328;28;47255;-65
2022/05/18 03:25:27;;;;;;;;;4.33;3.00;;;;;24.75;50.25;101389.88;2071068;28;48019;-65
2022/05/18 03:26:27;;;;;;;;;3.67;3.67;;;;;24.75;50.59;101383.59;2078983;28;47719;-64
2022/05/18 03:27:28;;;;;;;;;2.00;2.00;;;;;24.73;50.65;101382.81;2080140;28;47368;-67
2022/05/18 03:28:29;;;;;;;;;2.00;2.00;;;;;24.72;50.28;101383.81;2079454;28;47752;-65
2022/05/18 03:29:29;;;;;;;;;2.67;2.67;;;;;24.69;50.07;101389.47;2078798;28;47781;-65
2022/05/18 03:30:30;;;;;;;;;3.00;3.00;;;;;24.69;50.21;101394.88;2077135;28;46090;-64
2022/05/18 03:31:30;;;;;;;;;1.00;1.00;;;;;24.66;50.41;101387.84;2070693;28;47476;-64
2022/05/18 03:32:30;;;;;;;;;3.00;2.67;;;;;24.62;50.30;101395.28;2078366;28;47847;-64
2022/05/18 03:33:32;;;;;;;;;3.00;3.00;;;;;24.60;50.25;101397.25;2076296;28;47653;-63
2022/05/18 03:34:33;;;;;;;;;2.25;2.25;;;;;24.58;50.43;101401.06;2070974;28;47685;-63
2022/05/18 03:35:33;;;;;;;;;2.00;2.00;;;;;24.57;50.15;101404.75;2071207;28;48107;-63
2022/05/18 03:36:34;;;;;;;;;2.00;2.00;;;;;24.55;50.22;101404.84;2071068;28;47517;-64
2022/05/18 03:37:35;;;;;;;;;2.75;2.00;;;;;24.53;50.67;101403.22;2070311;28;47698;-63
2022/05/18 03:38:35;;;;;;;;;4.00;4.00;;;;;24.54;50.31;101407.69;2063049;28;47421;-64
2022/05/18 03:39:36;;;;;;;;;1.00;1.00;;;;;24.54;50.35;101413.97;2062864;28;48455;-63
2022/05/18 03:40:36;;;;;;;;;4.00;2.33;;;;;24.54;50.44;101413.13;2071023;28;48116;-64
2022/05/18 03:41:37;;;;;;;;;2.33;2.00;;;;;24.54;50.05;101408.56;2071107;28;47569;-64
2022/05/18 03:42:37;;;;;;;;;3.00;3.00;;;;;24.55;49.93;101409.41;2070797;28;47226;-63
2022/05/18 03:43:38;;;;;;;;;2.00;2.00;;;;;24.54;50.00;101405.84;2070936;28;47595;-63
2022/05/18 03:44:39;;;;;;;;;2.25;2.25;;;;;24.54;49.73;101411.25;2070686;28;46772;-62
2022/05/18 03:45:39;;;;;;;;;2.33;2.33;;;;;24.53;49.73;101412.25;2070924;28;47944;-63
2022/05/18 03:46:40;;;;;;;;;3.00;3.00;;;;;24.52;49.73;101423.19;2070490;28;47422;-62
2022/05/18 03:47:42;;;;;;;;;0.67;0.00;;;;;24.50;49.28;101430.56;2071909;28;47501;-63
2022/05/18 03:48:43;;;;;;;;;2.00;1.25;;;;;24.49;49.75;101426.09;2070047;28;47747;-63
2022/05/18 03:49:43;;;;;;;;;1.00;1.00;;;;;24.47;49.54;101428.06;2070322;28;48100;-64
2022/05/18 03:50:46;;;;;;;;;1.33;1.33;;;;;24.44;49.27;101421.00;2070570;28;47646;-63
2022/05/18 03:51:48;;;;;;;;;0.75;0.75;;;;;24.43;49.34;101429.25;2070688;28;47356;-62
2022/05/18 03:52:48;;;;;;;;;2.00;2.00;;;;;24.40;49.48;101429.47;2070791;28;47419;-64
2022/05/18 03:53:48;;;;;;;;;2.00;1.00;;;;;24.34;49.17;101434.31;2070588;28;47806;-63
2022/05/18 03:54:49;;;;;;;;;1.00;1.00;;;;;24.32;49.76;101427.28;2070394;28;47627;-64
2022/05/18 03:55:50;;;;;;;;;1.00;1.00;;;;;24.30;49.68;101427.38;2070469;28;47830;-63
2022/05/18 03:56:50;;;;;;;;;1.75;1.25;;;;;24.30;49.56;101430.09;2070855;28;48097;-64
2022/05/18 03:57:51;;;;;;;;;2.33;2.33;;;;;24.28;49.83;101429.28;2070597;28;47582;-63
2022/05/18 03:58:52;;;;;;;;;1.00;1.00;;;;;24.27;49.38;101435.69;2061620;28;46326;-64
2022/05/18 03:59:52;;;;;;;;;1.67;1.67;;;;;24.26;49.42;101428.50;2070236;28;47990;-63
2022/05/18 04:00:55;;;;;;;;;2.00;1.00;;;;;24.24;49.52;101441.31;2071440;28;47822;-64
2022/05/18 04:01:55;;;;;;;;;1.75;1.75;;;;;24.23;49.69;101438.69;2071548;28;47809;-62
2022/05/18 04:02:56;;;;;;;;;1.33;1.33;;;;;24.21;49.39;101435.22;2071521;28;46672;-62
2022/05/18 04:03:57;;;;;;;;;1.75;1.75;;;;;24.20;49.71;101441.63;2071593;28;47731;-63
2022/05/18 04:04:57;;;;;;;;;1.67;1.67;;;;;24.19;49.86;101442.59;2071617;28;48330;-63
2022/05/18 04:05:58;;;;;;;;;2.00;2.00;;;;;24.17;49.60;101441.84;2069599;28;47861;-64
2022/05/18 04:06:58;;;;;;;;;1.33;1.33;;;;;24.15;49.41;101446.50;2063438;28;47512;-63
2022/05/18 04:08:00;;;;;;;;;2.00;2.00;;;;;24.14;49.60;101447.44;2072163;28;47975;-63
2022/05/18 04:09:00;;;;;;;;;1.00;1.00;;;;;24.12;49.90;101444.84;2073277;28;48228;-63
2022/05/18 04:10:01;;;;;;;;;2.00;0.33;;;;;24.13;49.75;101452.00;2071706;28;47635;-62
2022/05/18 04:11:02;;;;;;;;;1.67;1.33;;;;;24.11;49.77;101443.09;2071019;28;47483;-65
2022/05/18 04:12:03;;;;;;;;;3.00;3.00;;;;;24.12;49.55;101452.09;2070518;28;47379;-64
2022/05/18 04:13:04;;;;;;;;;3.00;2.00;;;;;24.12;49.59;101455.69;2069852;28;47634;-64
2022/05/18 04:14:05;;;;;;;;;1.75;1.75;;;;;24.10;49.96;101454.06;2069990;28;47900;-64
2022/05/18 04:15:06;;;;;;;;;1.67;1.67;;;;;24.10;49.46;101452.22;2071481;28;47521;-64
2022/05/18 04:16:08;;;;;;;;;1.00;1.00;;;;;24.11;49.56;101448.53;2072664;28;47813;-62
2022/05/18 04:17:09;;;;;;;;;3.50;2.00;;;;;24.10;49.87;101459.47;2079099;28;48125;-63
2022/05/18 04:18:10;;;;;;;;;3.33;2.33;;;;;24.10;49.55;101456.75;2076322;28;47940;-63
2022/05/18 04:19:10;;;;;;;;;1.75;1.75;;;;;24.10;49.69;101460.34;2075980;28;47597;-63
2022/05/18 04:20:17;;;;;;;;;1.67;1.67;;;;;24.11;49.48;101462.09;2071466;28;48020;-62
2022/05/18 04:21:17;;;;;;;;;0.75;0.75;;;;;24.12;49.36;101454.81;2071368;28;47670;-63
2022/05/18 04:22:18;;;;;;;;;1.33;1.33;;;;;24.12;49.46;101455.69;2071313;28;48071;-63
2022/05/18 04:23:19;;;;;;;;;1.00;1.00;;;;;24.13;49.65;101462.84;2078979;28;47805;-64
2022/05/18 04:24:19;;;;;;;;;0.75;0.00;;;;;24.12;49.38;101455.69;2073169;28;47486;-64
2022/05/18 04:25:22;;;;;;;;;0.33;0.33;;;;;24.13;49.23;101462.84;2070277;28;47834;-64
2022/05/18 04:26:23;;;;;;;;;1.00;1.00;;;;;24.12;49.12;101461.09;2070613;28;47533;-64
2022/05/18 04:27:23;;;;;;;;;1.00;1.00;;;;;24.10;49.26;101460.34;2070947;28;47821;-62
2022/05/18 04:28:24;;;;;;;;;1.00;1.00;;;;;24.10;48.92;101454.06;2071590;28;47433;-63
2022/05/18 04:29:25;;;;;;;;;2.50;1.00;;;;;24.09;49.27;101461.31;2071145;28;47452;-64
2022/05/18 04:30:27;;;;;;;;;1.00;1.00;;;;;24.09;49.36;101458.59;2071122;28;48312;-64
2022/05/18 04:31:27;;;;;;;;;2.00;2.00;;;;;24.10;49.02;101457.63;2063374;28;47528;-64
2022/05/18 04:32:28;;;;;;;;;2.00;2.00;;;;;24.08;48.93;101463.16;2069626;28;47895;-63
2022/05/18 04:33:28;;;;;;;;;1.00;1.00;;;;;24.10;48.96;101459.47;2063536;28;47401;-63
2022/05/18 04:34:29;;;;;;;;;0.33;0.33;;;;;24.08;48.57;101465.00;2070252;28;48315;-63
2022/05/18 04:35:29;;;;;;;;;2.00;2.00;;;;;24.05;48.58;101463.38;2079385;28;47775;-63
2022/05/18 04:36:30;;;;;;;;;2.00;2.00;;;;;24.04;48.74;101463.47;2078643;28;47931;-63
2022/05/18 04:37:30;;;;;;;;;1.00;1.00;;;;;24.03;48.66;101465.31;2082553;28;47677;-64
2022/05/18 04:38:32;;;;;;;;;3.00;2.00;;;;;24.04;48.69;101463.47;2086386;28;47634;-64
2022/05/18 04:39:32;;;;;;;;;1.75;1.50;;;;;24.04;48.43;101466.19;2079709;28;47852;-64
2022/05/18 04:40:33;;;;;;;;;0.00;0.00;;;;;24.04;48.61;101460.78;2078610;28;48145;-63
2022/05/18 04:41:34;;;;;;;;;1.50;1.50;;;;;24.07;48.54;101468.69;2079052;28;47442;-64
2022/05/18 04:42:35;;;;;;;;;0.67;0.67;;;;;24.06;48.12;101470.53;2079428;28;48075;-66
2022/05/18 04:43:35;;;;;;;;;0.00;0.00;;;;;24.04;47.87;101468.91;2079448;28;48084;-64
2022/05/18 04:44:37;;;;;;;;;0.00;0.00;;;;;24.02;48.09;101465.44;2079309;28;47696;-63
2022/05/18 04:45:44;;;;;;;;;1.00;1.00;;;;;24.02;48.18;101466.31;2076510;28;47795;-63
2022/05/18 04:46:45;;;;;;;;;0.25;0.00;;;;;24.02;47.75;101468.13;2079621;28;47410;-63
2022/05/18 04:47:46;;;;;;;;;1.00;1.00;;;;;24.02;47.87;101468.13;2080829;28;47657;-63
2022/05/18 04:48:46;;;;;;;;;0.00;0.00;;;;;24.03;47.92;101465.31;2079423;28;48041;-64
2022/05/18 04:49:47;;;;;;;;;1.00;1.00;;;;;24.02;47.67;101469.00;2079525;28;47712;-64
2022/05/18 04:50:48;;;;;;;;;1.67;1.67;;;;;24.03;48.11;101473.47;2079140;28;47564;-64
2022/05/18 04:51:48;;;;;;;;;1.00;1.00;;;;;24.04;48.18;101479.75;2079529;28;47893;-63
2022/05/18 04:52:49;;;;;;;;;1.67;1.00;;;;;24.03;47.98;101473.47;2079523;28;47695;-64
2022/05/18 04:53:49;;;;;;;;;0.33;0.33;;;;;24.03;47.80;101484.31;2079779;28;47650;-63
2022/05/18 04:54:50;;;;;;;;;1.00;1.00;;;;;24.04;47.96;101486.03;2079324;28;47453;-63
2022/05/18 04:55:51;;;;;;;;;2.00;2.00;;;;;24.04;47.90;101491.47;2079399;28;46904;-63